Main page
METAR-TAF:

METAR-TAF

Airports :

London City Airport

London, England

latitude: 51-30N, longitude: 000-03E, elevation: 5 m

Current weather observation

The report was made 36 minutes ago, at 15:20 UTC
Wind 15 kt from the West/Southwest with gusts up to 25 kt
Temperature 11°C
Humidity 62%
Pressure 1021 hPa
Visibility 10 km or more
Broken clouds at a height of 3600 ft

METAR: EGLC 211520Z AUTO 24015G25KT 9999 BKN036 11/04 Q1021

Time: 15:56 (15:56 UTC)

Forecast

The report was made 1 hour and 49 minutes ago, at 14:07 UTC
Forecast valid from 21 at 15 UTC to 21 at 22 UTC
Wind 18 kt from the Southwest with gusts up to 30 kt
Visibility 10 km or more
Broken clouds at a height of 2500 ft
Probability 30% :
Temporary
from 21 at 20 UTC to 21 at 22 UTC
Visibility: 8000 m
Broken clouds at a height of 1400 ft
light rain

TAF: EGLC 211407Z 2115/2122 23018G30KT 9999 BKN025 PROB30 TEMPO 2120/2122 8000 -RA BKN014

Weather observations and forecasts of more than 4000 airports (METAR and TAF reports).

The available stations are represented by yellow and red dots on the map.

Hover mouse over dot to see the name of the station.

Then click to see weather observations and forecasts.

To change the map : click on the green buttons with a black cross to zoom in, on the green button with a dash to zoom out, or on the green arrows for adjacent maps.


METAR-TAF: